sensor_id;sensor_type;location;lat;lon;timestamp;P1;durP1;ratioP1;P2;durP2;ratioP2
21501;SDS011;27639;48.674;9.242;2024-02-14T00:01:52;9.80;;;6.63;;
21501;SDS011;27639;48.674;9.242;2024-02-14T00:04:18;11.82;;;6.28;;
21501;SDS011;27639;48.674;9.242;2024-02-14T00:06:44;8.18;;;5.50;;
21501;SDS011;27639;48.674;9.242;2024-02-14T00:09:10;9.13;;;5.40;;
21501;SDS011;27639;48.674;9.242;2024-02-14T00:11:36;8.68;;;4.88;;
21501;SDS011;27639;48.674;9.242;2024-02-14T00:14:02;9.18;;;5.00;;
21501;SDS011;27639;48.674;9.242;2024-02-14T00:16:27;7.20;;;4.82;;
21501;SDS011;27639;48.674;9.242;2024-02-14T00:18:55;6.95;;;4.28;;
21501;SDS011;27639;48.674;9.242;2024-02-14T00:21:21;7.38;;;4.40;;
21501;SDS011;27639;48.674;9.242;2024-02-14T00:23:47;8.07;;;4.13;;
21501;SDS011;27639;48.674;9.242;2024-02-14T00:26:13;8.95;;;4.60;;
21501;SDS011;27639;48.674;9.242;2024-02-14T00:28:38;7.40;;;4.68;;
21501;SDS011;27639;48.674;9.242;2024-02-14T00:31:04;9.70;;;5.05;;
21501;SDS011;27639;48.674;9.242;2024-02-14T00:33:31;8.63;;;5.47;;
21501;SDS011;27639;48.674;9.242;2024-02-14T00:35:56;7.45;;;4.68;;
21501;SDS011;27639;48.674;9.242;2024-02-14T00:38:22;7.90;;;5.03;;
21501;SDS011;27639;48.674;9.242;2024-02-14T00:40:48;6.47;;;4.40;;
21501;SDS011;27639;48.674;9.242;2024-02-14T00:43:13;8.63;;;5.40;;
21501;SDS011;27639;48.674;9.242;2024-02-14T00:45:39;6.40;;;4.43;;
21501;SDS011;27639;48.674;9.242;2024-02-14T00:48:05;7.38;;;4.63;;
21501;SDS011;27639;48.674;9.242;2024-02-14T00:50:32;6.38;;;4.65;;
21501;SDS011;27639;48.674;9.242;2024-02-14T00:52:58;7.90;;;4.30;;
21501;SDS011;27639;48.674;9.242;2024-02-14T00:55:24;7.75;;;4.60;;
21501;SDS011;27639;48.674;9.242;2024-02-14T00:57:50;6.63;;;4.32;;
21501;SDS011;27639;48.674;9.242;2024-02-14T01:00:15;7.38;;;4.25;;
21501;SDS011;27639;48.674;9.242;2024-02-14T01:02:42;6.60;;;3.63;;
21501;SDS011;27639;48.674;9.242;2024-02-14T01:05:08;7.95;;;4.20;;
21501;SDS011;27639;48.674;9.242;2024-02-14T01:07:34;6.43;;;4.28;;
21501;SDS011;27639;48.674;9.242;2024-02-14T01:10:00;6.75;;;4.22;;
21501;SDS011;27639;48.674;9.242;2024-02-14T01:12:26;7.60;;;4.18;;
21501;SDS011;27639;48.674;9.242;2024-02-14T01:14:52;7.63;;;4.53;;
21501;SDS011;27639;48.674;9.242;2024-02-14T01:17:18;7.00;;;4.15;;
21501;SDS011;27639;48.674;9.242;2024-02-14T01:19:44;6.60;;;4.75;;
21501;SDS011;27639;48.674;9.242;2024-02-14T01:22:09;8.70;;;5.50;;
21501;SDS011;27639;48.674;9.242;2024-02-14T01:24:35;6.53;;;5.03;;
21501;SDS011;27639;48.674;9.242;2024-02-14T01:27:00;9.93;;;5.40;;
21501;SDS011;27639;48.674;9.242;2024-02-14T01:29:27;7.97;;;5.40;;
21501;SDS011;27639;48.674;9.242;2024-02-14T01:31:53;7.45;;;5.25;;
21501;SDS011;27639;48.674;9.242;2024-02-14T01:34:19;9.27;;;5.53;;
21501;SDS011;27639;48.674;9.242;2024-02-14T01:36:45;10.10;;;5.15;;
21501;SDS011;27639;48.674;9.242;2024-02-14T01:39:11;8.85;;;5.70;;
21501;SDS011;27639;48.674;9.242;2024-02-14T01:41:37;8.63;;;6.03;;
21501;SDS011;27639;48.674;9.242;2024-02-14T01:44:03;9.30;;;6.10;;
21501;SDS011;27639;48.674;9.242;2024-02-14T01:46:29;9.40;;;5.80;;
21501;SDS011;27639;48.674;9.242;2024-02-14T01:48:55;9.05;;;5.70;;
21501;SDS011;27639;48.674;9.242;2024-02-14T01:51:22;10.30;;;5.82;;
21501;SDS011;27639;48.674;9.242;2024-02-14T01:53:49;8.82;;;5.78;;
21501;SDS011;27639;48.674;9.242;2024-02-14T01:56:16;12.02;;;5.90;;
21501;SDS011;27639;48.674;9.242;2024-02-14T01:58:42;8.13;;;5.45;;
21501;SDS011;27639;48.674;9.242;2024-02-14T02:01:08;10.15;;;5.28;;
21501;SDS011;27639;48.674;9.242;2024-02-14T02:03:35;8.75;;;5.70;;
21501;SDS011;27639;48.674;9.242;2024-02-14T02:06:02;9.85;;;5.82;;
21501;SDS011;27639;48.674;9.242;2024-02-14T02:08:30;8.90;;;5.63;;
21501;SDS011;27639;48.674;9.242;2024-02-14T02:10:57;9.55;;;5.40;;
21501;SDS011;27639;48.674;9.242;2024-02-14T02:13:23;9.55;;;5.85;;
21501;SDS011;27639;48.674;9.242;2024-02-14T02:15:51;9.00;;;5.68;;
21501;SDS011;27639;48.674;9.242;2024-02-14T02:18:18;8.52;;;6.10;;
21501;SDS011;27639;48.674;9.242;2024-02-14T02:20:44;8.88;;;5.75;;
21501;SDS011;27639;48.674;9.242;2024-02-14T02:23:10;10.15;;;6.10;;
21501;SDS011;27639;48.674;9.242;2024-02-14T02:25:40;10.20;;;6.60;;
21501;SDS011;27639;48.674;9.242;2024-02-14T02:28:06;9.90;;;7.13;;
21501;SDS011;27639;48.674;9.242;2024-02-14T02:30:33;8.52;;;6.53;;
21501;SDS011;27639;48.674;9.242;2024-02-14T02:33:02;10.20;;;7.07;;
21501;SDS011;27639;48.674;9.242;2024-02-14T02:35:28;11.20;;;6.93;;
21501;SDS011;27639;48.674;9.242;2024-02-14T02:37:54;9.65;;;6.47;;
21501;SDS011;27639;48.674;9.242;2024-02-14T02:40:20;10.23;;;6.55;;
21501;SDS011;27639;48.674;9.242;2024-02-14T02:42:48;8.35;;;6.00;;
21501;SDS011;27639;48.674;9.242;2024-02-14T02:45:15;9.60;;;6.30;;
21501;SDS011;27639;48.674;9.242;2024-02-14T02:47:41;9.27;;;6.30;;
21501;SDS011;27639;48.674;9.242;2024-02-14T02:50:06;10.50;;;7.07;;
21501;SDS011;27639;48.674;9.242;2024-02-14T02:52:33;9.40;;;6.70;;
21501;SDS011;27639;48.674;9.242;2024-02-14T02:54:59;10.25;;;6.97;;
21501;SDS011;27639;48.674;9.242;2024-02-14T02:57:26;10.55;;;7.20;;
21501;SDS011;27639;48.674;9.242;2024-02-14T02:59:52;10.52;;;6.95;;
21501;SDS011;27639;48.674;9.242;2024-02-14T03:02:19;10.75;;;7.03;;
21501;SDS011;27639;48.674;9.242;2024-02-14T03:04:45;10.85;;;6.82;;
21501;SDS011;27639;48.674;9.242;2024-02-14T03:07:11;10.13;;;6.35;;
21501;SDS011;27639;48.674;9.242;2024-02-14T03:09:37;10.55;;;6.78;;
21501;SDS011;27639;48.674;9.242;2024-02-14T03:12:03;10.10;;;7.00;;
21501;SDS011;27639;48.674;9.242;2024-02-14T03:14:30;9.85;;;6.78;;
21501;SDS011;27639;48.674;9.242;2024-02-14T03:16:57;11.80;;;6.20;;
21501;SDS011;27639;48.674;9.242;2024-02-14T03:19:27;10.20;;;6.80;;
21501;SDS011;27639;48.674;9.242;2024-02-14T03:21:53;10.80;;;6.55;;
21501;SDS011;27639;48.674;9.242;2024-02-14T03:24:20;7.95;;;5.70;;
21501;SDS011;27639;48.674;9.242;2024-02-14T03:26:45;8.18;;;5.93;;
21501;SDS011;27639;48.674;9.242;2024-02-14T03:29:11;10.25;;;6.40;;
21501;SDS011;27639;48.674;9.242;2024-02-14T03:31:37;9.73;;;6.63;;
21501;SDS011;27639;48.674;9.242;2024-02-14T03:34:03;9.63;;;5.80;;
21501;SDS011;27639;48.674;9.242;2024-02-14T03:36:29;8.50;;;5.78;;
21501;SDS011;27639;48.674;9.242;2024-02-14T03:38:56;9.60;;;5.78;;
21501;SDS011;27639;48.674;9.242;2024-02-14T03:41:22;10.15;;;6.32;;
21501;SDS011;27639;48.674;9.242;2024-02-14T03:43:47;10.88;;;6.40;;
21501;SDS011;27639;48.674;9.242;2024-02-14T03:46:14;9.13;;;6.35;;
21501;SDS011;27639;48.674;9.242;2024-02-14T03:48:40;8.05;;;5.78;;
21501;SDS011;27639;48.674;9.242;2024-02-14T03:51:08;9.05;;;6.20;;
21501;SDS011;27639;48.674;9.242;2024-02-14T03:53:33;9.77;;;5.60;;
21501;SDS011;27639;48.674;9.242;2024-02-14T03:55:59;9.02;;;5.82;;
21501;SDS011;27639;48.674;9.242;2024-02-14T03:58:25;8.35;;;5.90;;
21501;SDS011;27639;48.674;9.242;2024-02-14T04:00:51;7.57;;;5.90;;
21501;SDS011;27639;48.674;9.242;2024-02-14T04:03:17;10.02;;;6.25;;
21501;SDS011;27639;48.674;9.242;2024-02-14T04:05:43;8.45;;;6.18;;
21501;SDS011;27639;48.674;9.242;2024-02-14T04:08:09;8.55;;;6.20;;
21501;SDS011;27639;48.674;9.242;2024-02-14T04:10:35;9.68;;;6.30;;
21501;SDS011;27639;48.674;9.242;2024-02-14T04:13:03;8.57;;;5.47;;
21501;SDS011;27639;48.674;9.242;2024-02-14T04:15:29;9.35;;;6.35;;
21501;SDS011;27639;48.674;9.242;2024-02-14T04:17:54;9.88;;;6.47;;
21501;SDS011;27639;48.674;9.242;2024-02-14T04:20:20;9.65;;;6.25;;
21501;SDS011;27639;48.674;9.242;2024-02-14T04:22:45;12.05;;;6.60;;
21501;SDS011;27639;48.674;9.242;2024-02-14T04:25:11;9.13;;;5.95;;
21501;SDS011;27639;48.674;9.242;2024-02-14T04:27:37;8.50;;;5.75;;
21501;SDS011;27639;48.674;9.242;2024-02-14T04:30:03;9.77;;;6.25;;
21501;SDS011;27639;48.674;9.242;2024-02-14T04:32:29;8.98;;;5.70;;
21501;SDS011;27639;48.674;9.242;2024-02-14T04:34:55;8.73;;;5.95;;
21501;SDS011;27639;48.674;9.242;2024-02-14T04:37:21;8.43;;;5.88;;
21501;SDS011;27639;48.674;9.242;2024-02-14T04:39:47;8.02;;;5.90;;
21501;SDS011;27639;48.674;9.242;2024-02-14T04:42:12;8.50;;;6.22;;
21501;SDS011;27639;48.674;9.242;2024-02-14T04:44:38;8.85;;;5.82;;
21501;SDS011;27639;48.674;9.242;2024-02-14T04:47:04;8.68;;;5.80;;
21501;SDS011;27639;48.674;9.242;2024-02-14T04:49:30;9.30;;;6.35;;
21501;SDS011;27639;48.674;9.242;2024-02-14T04:51:55;8.90;;;5.78;;
21501;SDS011;27639;48.674;9.242;2024-02-14T04:54:22;7.93;;;5.85;;
21501;SDS011;27639;48.674;9.242;2024-02-14T04:56:48;7.82;;;5.75;;
21501;SDS011;27639;48.674;9.242;2024-02-14T04:59:13;9.45;;;5.85;;
21501;SDS011;27639;48.674;9.242;2024-02-14T05:01:39;9.27;;;5.90;;
21501;SDS011;27639;48.674;9.242;2024-02-14T05:04:05;8.63;;;5.70;;
21501;SDS011;27639;48.674;9.242;2024-02-14T05:06:31;9.52;;;5.82;;
21501;SDS011;27639;48.674;9.242;2024-02-14T05:08:57;9.63;;;5.78;;
21501;SDS011;27639;48.674;9.242;2024-02-14T05:11:23;9.85;;;5.40;;
21501;SDS011;27639;48.674;9.242;2024-02-14T05:13:49;8.40;;;5.85;;
21501;SDS011;27639;48.674;9.242;2024-02-14T05:16:23;7.90;;;5.45;;
21501;SDS011;27639;48.674;9.242;2024-02-14T05:18:49;8.77;;;5.70;;
21501;SDS011;27639;48.674;9.242;2024-02-14T05:21:15;8.75;;;5.85;;
21501;SDS011;27639;48.674;9.242;2024-02-14T05:23:41;9.45;;;6.90;;
21501;SDS011;27639;48.674;9.242;2024-02-14T05:26:07;10.18;;;6.45;;
21501;SDS011;27639;48.674;9.242;2024-02-14T05:28:32;9.63;;;6.22;;
21501;SDS011;27639;48.674;9.242;2024-02-14T05:31:01;8.85;;;6.13;;
21501;SDS011;27639;48.674;9.242;2024-02-14T05:33:28;9.50;;;6.70;;
21501;SDS011;27639;48.674;9.242;2024-02-14T05:35:53;7.40;;;5.72;;
21501;SDS011;27639;48.674;9.242;2024-02-14T05:38:19;8.68;;;6.30;;
21501;SDS011;27639;48.674;9.242;2024-02-14T05:40:48;8.30;;;5.97;;
21501;SDS011;27639;48.674;9.242;2024-02-14T05:43:14;9.20;;;5.63;;
21501;SDS011;27639;48.674;9.242;2024-02-14T05:45:40;8.88;;;5.35;;
21501;SDS011;27639;48.674;9.242;2024-02-14T05:48:06;7.60;;;4.07;;
21501;SDS011;27639;48.674;9.242;2024-02-14T05:50:32;6.78;;;3.45;;
21501;SDS011;27639;48.674;9.242;2024-02-14T05:52:58;7.40;;;3.42;;
21501;SDS011;27639;48.674;9.242;2024-02-14T05:55:24;8.00;;;3.70;;
21501;SDS011;27639;48.674;9.242;2024-02-14T05:57:50;8.60;;;3.85;;
21501;SDS011;27639;48.674;9.242;2024-02-14T06:00:17;7.40;;;3.60;;
21501;SDS011;27639;48.674;9.242;2024-02-14T06:02:44;7.18;;;3.80;;
21501;SDS011;27639;48.674;9.242;2024-02-14T06:05:09;6.38;;;3.63;;
21501;SDS011;27639;48.674;9.242;2024-02-14T06:07:38;7.63;;;3.92;;
21501;SDS011;27639;48.674;9.242;2024-02-14T06:10:03;6.95;;;4.00;;
21501;SDS011;27639;48.674;9.242;2024-02-14T06:12:31;7.97;;;4.28;;
21501;SDS011;27639;48.674;9.242;2024-02-14T06:14:57;7.53;;;4.28;;
21501;SDS011;27639;48.674;9.242;2024-02-14T06:17:22;7.95;;;3.85;;
21501;SDS011;27639;48.674;9.242;2024-02-14T06:19:48;5.60;;;3.67;;
21501;SDS011;27639;48.674;9.242;2024-02-14T06:22:13;7.57;;;3.95;;
21501;SDS011;27639;48.674;9.242;2024-02-14T06:24:39;6.60;;;4.10;;
21501;SDS011;27639;48.674;9.242;2024-02-14T06:27:05;8.45;;;4.70;;
21501;SDS011;27639;48.674;9.242;2024-02-14T06:29:31;7.03;;;4.47;;
21501;SDS011;27639;48.674;9.242;2024-02-14T06:31:56;5.70;;;4.30;;
21501;SDS011;27639;48.674;9.242;2024-02-14T06:34:22;6.95;;;3.97;;
21501;SDS011;27639;48.674;9.242;2024-02-14T06:36:48;6.70;;;4.13;;
21501;SDS011;27639;48.674;9.242;2024-02-14T06:39:13;6.88;;;3.70;;
21501;SDS011;27639;48.674;9.242;2024-02-14T06:41:39;6.25;;;3.78;;
21501;SDS011;27639;48.674;9.242;2024-02-14T06:44:05;7.32;;;4.25;;
21501;SDS011;27639;48.674;9.242;2024-02-14T06:46:31;6.35;;;4.30;;
21501;SDS011;27639;48.674;9.242;2024-02-14T06:48:57;8.70;;;4.28;;
21501;SDS011;27639;48.674;9.242;2024-02-14T06:51:22;7.63;;;4.40;;
21501;SDS011;27639;48.674;9.242;2024-02-14T06:53:49;8.23;;;4.40;;
21501;SDS011;27639;48.674;9.242;2024-02-14T06:56:15;8.50;;;4.38;;
21501;SDS011;27639;48.674;9.242;2024-02-14T06:58:41;8.13;;;4.65;;
21501;SDS011;27639;48.674;9.242;2024-02-14T07:01:07;7.97;;;4.47;;
21501;SDS011;27639;48.674;9.242;2024-02-14T07:03:33;7.97;;;4.00;;
21501;SDS011;27639;48.674;9.242;2024-02-14T07:05:59;7.82;;;3.90;;
21501;SDS011;27639;48.674;9.242;2024-02-14T07:08:24;8.00;;;4.03;;
21501;SDS011;27639;48.674;9.242;2024-02-14T07:10:53;8.70;;;4.25;;
21501;SDS011;27639;48.674;9.242;2024-02-14T07:13:20;6.25;;;3.80;;
21501;SDS011;27639;48.674;9.242;2024-02-14T07:15:45;7.38;;;4.43;;
21501;SDS011;27639;48.674;9.242;2024-02-14T07:18:11;6.07;;;3.80;;
21501;SDS011;27639;48.674;9.242;2024-02-14T07:20:37;6.78;;;3.95;;
21501;SDS011;27639;48.674;9.242;2024-02-14T07:23:03;8.13;;;4.05;;
21501;SDS011;27639;48.674;9.242;2024-02-14T07:25:30;7.95;;;4.13;;
21501;SDS011;27639;48.674;9.242;2024-02-14T07:27:55;8.00;;;4.20;;
21501;SDS011;27639;48.674;9.242;2024-02-14T07:30:21;8.65;;;4.65;;
21501;SDS011;27639;48.674;9.242;2024-02-14T07:32:47;7.32;;;4.30;;
21501;SDS011;27639;48.674;9.242;2024-02-14T07:35:12;7.07;;;4.18;;
21501;SDS011;27639;48.674;9.242;2024-02-14T07:37:38;6.75;;;3.47;;
21501;SDS011;27639;48.674;9.242;2024-02-14T07:40:04;6.38;;;3.55;;
21501;SDS011;27639;48.674;9.242;2024-02-14T07:42:31;5.78;;;3.53;;
21501;SDS011;27639;48.674;9.242;2024-02-14T07:44:56;6.85;;;3.63;;
21501;SDS011;27639;48.674;9.242;2024-02-14T07:47:22;5.20;;;2.90;;
21501;SDS011;27639;48.674;9.242;2024-02-14T07:49:48;5.78;;;3.08;;
21501;SDS011;27639;48.674;9.242;2024-02-14T07:52:13;6.00;;;3.13;;
21501;SDS011;27639;48.674;9.242;2024-02-14T07:54:39;5.82;;;3.03;;
21501;SDS011;27639;48.674;9.242;2024-02-14T07:57:04;5.53;;;3.10;;
21501;SDS011;27639;48.674;9.242;2024-02-14T07:59:30;8.52;;;4.88;;
21501;SDS011;27639;48.674;9.242;2024-02-14T08:01:56;7.13;;;4.13;;
21501;SDS011;27639;48.674;9.242;2024-02-14T08:04:22;5.68;;;3.58;;
21501;SDS011;27639;48.674;9.242;2024-02-14T08:06:48;6.07;;;3.67;;
21501;SDS011;27639;48.674;9.242;2024-02-14T08:09:16;7.45;;;3.90;;
21501;SDS011;27639;48.674;9.242;2024-02-14T08:11:42;6.55;;;4.07;;
21501;SDS011;27639;48.674;9.242;2024-02-14T08:14:07;8.05;;;3.92;;
21501;SDS011;27639;48.674;9.242;2024-02-14T08:16:33;8.07;;;3.63;;
21501;SDS011;27639;48.674;9.242;2024-02-14T08:18:59;5.70;;;3.53;;
21501;SDS011;27639;48.674;9.242;2024-02-14T08:21:25;8.27;;;3.70;;
21501;SDS011;27639;48.674;9.242;2024-02-14T08:23:51;5.88;;;3.40;;
21501;SDS011;27639;48.674;9.242;2024-02-14T08:26:23;8.27;;;4.03;;
21501;SDS011;27639;48.674;9.242;2024-02-14T08:28:49;6.72;;;3.47;;
21501;SDS011;27639;48.674;9.242;2024-02-14T08:31:15;5.07;;;3.40;;
21501;SDS011;27639;48.674;9.242;2024-02-14T08:33:41;5.63;;;3.35;;
21501;SDS011;27639;48.674;9.242;2024-02-14T08:36:06;6.10;;;2.95;;
21501;SDS011;27639;48.674;9.242;2024-02-14T08:38:35;5.00;;;3.00;;
21501;SDS011;27639;48.674;9.242;2024-02-14T08:41:01;6.32;;;3.08;;
21501;SDS011;27639;48.674;9.242;2024-02-14T08:43:27;5.25;;;2.80;;
21501;SDS011;27639;48.674;9.242;2024-02-14T08:45:56;5.38;;;2.63;;
21501;SDS011;27639;48.674;9.242;2024-02-14T08:48:22;5.18;;;2.70;;
21501;SDS011;27639;48.674;9.242;2024-02-14T08:50:48;4.78;;;2.85;;
21501;SDS011;27639;48.674;9.242;2024-02-14T08:53:14;6.38;;;2.97;;
21501;SDS011;27639;48.674;9.242;2024-02-14T08:55:40;6.05;;;2.58;;
21501;SDS011;27639;48.674;9.242;2024-02-14T08:58:06;8.32;;;3.10;;
21501;SDS011;27639;48.674;9.242;2024-02-14T09:00:31;6.15;;;2.75;;
21501;SDS011;27639;48.674;9.242;2024-02-14T09:03:00;8.27;;;3.80;;
21501;SDS011;27639;48.674;9.242;2024-02-14T09:05:25;7.40;;;4.20;;
21501;SDS011;27639;48.674;9.242;2024-02-14T09:07:53;8.23;;;4.00;;
21501;SDS011;27639;48.674;9.242;2024-02-14T09:10:19;8.07;;;4.05;;
21501;SDS011;27639;48.674;9.242;2024-02-14T09:12:45;7.75;;;4.30;;
21501;SDS011;27639;48.674;9.242;2024-02-14T09:15:11;6.63;;;3.92;;
21501;SDS011;27639;48.674;9.242;2024-02-14T09:17:37;4.82;;;2.80;;
21501;SDS011;27639;48.674;9.242;2024-02-14T09:20:05;5.63;;;2.30;;
21501;SDS011;27639;48.674;9.242;2024-02-14T09:22:34;4.47;;;2.08;;
21501;SDS011;27639;48.674;9.242;2024-02-14T09:25:00;4.13;;;2.10;;
21501;SDS011;27639;48.674;9.242;2024-02-14T09:27:29;3.78;;;1.67;;
21501;SDS011;27639;48.674;9.242;2024-02-14T09:29:55;4.68;;;1.77;;
21501;SDS011;27639;48.674;9.242;2024-02-14T09:32:20;4.55;;;1.73;;
21501;SDS011;27639;48.674;9.242;2024-02-14T09:34:46;3.45;;;1.65;;
21501;SDS011;27639;48.674;9.242;2024-02-14T09:37:12;4.35;;;1.52;;
21501;SDS011;27639;48.674;9.242;2024-02-14T09:39:38;5.55;;;1.80;;
21501;SDS011;27639;48.674;9.242;2024-02-14T09:42:06;5.43;;;1.50;;
21501;SDS011;27639;48.674;9.242;2024-02-14T09:44:36;3.83;;;1.70;;
21501;SDS011;27639;48.674;9.242;2024-02-14T09:47:05;4.30;;;1.58;;
21501;SDS011;27639;48.674;9.242;2024-02-14T09:49:31;4.10;;;1.38;;
21501;SDS011;27639;48.674;9.242;2024-02-14T09:52:00;3.95;;;1.40;;
21501;SDS011;27639;48.674;9.242;2024-02-14T09:54:27;3.67;;;1.42;;
21501;SDS011;27639;48.674;9.242;2024-02-14T09:56:55;4.40;;;1.23;;
21501;SDS011;27639;48.674;9.242;2024-02-14T09:59:23;2.95;;;1.27;;
21501;SDS011;27639;48.674;9.242;2024-02-14T10:01:49;3.03;;;1.20;;
21501;SDS011;27639;48.674;9.242;2024-02-14T10:04:16;3.42;;;1.30;;
21501;SDS011;27639;48.674;9.242;2024-02-14T10:06:43;3.45;;;1.48;;
21501;SDS011;27639;48.674;9.242;2024-02-14T10:09:17;3.47;;;1.30;;
21501;SDS011;27639;48.674;9.242;2024-02-14T10:11:44;4.40;;;2.15;;
21501;SDS011;27639;48.674;9.242;2024-02-14T10:14:11;2.83;;;1.20;;
21501;SDS011;27639;48.674;9.242;2024-02-14T10:16:37;3.65;;;1.00;;
21501;SDS011;27639;48.674;9.242;2024-02-14T10:19:03;3.60;;;1.13;;
21501;SDS011;27639;48.674;9.242;2024-02-14T10:21:29;2.65;;;0.90;;
21501;SDS011;27639;48.674;9.242;2024-02-14T10:24:01;3.58;;;1.10;;
21501;SDS011;27639;48.674;9.242;2024-02-14T10:26:28;3.80;;;1.17;;
21501;SDS011;27639;48.674;9.242;2024-02-14T10:28:56;2.97;;;1.08;;
21501;SDS011;27639;48.674;9.242;2024-02-14T10:31:24;2.97;;;0.82;;
21501;SDS011;27639;48.674;9.242;2024-02-14T10:33:53;3.92;;;1.27;;
21501;SDS011;27639;48.674;9.242;2024-02-14T10:36:21;3.97;;;1.00;;
21501;SDS011;27639;48.674;9.242;2024-02-14T10:38:47;3.95;;;1.10;;
21501;SDS011;27639;48.674;9.242;2024-02-14T10:41:14;2.35;;;1.08;;
21501;SDS011;27639;48.674;9.242;2024-02-14T10:43:41;3.50;;;1.50;;
21501;SDS011;27639;48.674;9.242;2024-02-14T10:46:25;3.22;;;1.30;;
21501;SDS011;27639;48.674;9.242;2024-02-14T10:48:57;3.80;;;1.45;;
21501;SDS011;27639;48.674;9.242;2024-02-14T10:51:28;3.00;;;1.30;;
21501;SDS011;27639;48.674;9.242;2024-02-14T10:53:56;3.05;;;1.63;;
21501;SDS011;27639;48.674;9.242;2024-02-14T10:56:24;2.60;;;1.13;;
21501;SDS011;27639;48.674;9.242;2024-02-14T10:58:55;4.07;;;1.33;;
21501;SDS011;27639;48.674;9.242;2024-02-14T11:01:27;3.58;;;1.35;;
21501;SDS011;27639;48.674;9.242;2024-02-14T11:03:59;3.58;;;1.20;;
21501;SDS011;27639;48.674;9.242;2024-02-14T11:06:25;2.80;;;0.98;;
21501;SDS011;27639;48.674;9.242;2024-02-14T11:09:01;4.43;;;1.20;;
21501;SDS011;27639;48.674;9.242;2024-02-14T11:11:32;3.40;;;1.10;;
21501;SDS011;27639;48.674;9.242;2024-02-14T11:13:59;3.10;;;1.15;;
21501;SDS011;27639;48.674;9.242;2024-02-14T11:16:28;3.35;;;1.13;;
21501;SDS011;27639;48.674;9.242;2024-02-14T11:19:09;2.08;;;0.85;;
21501;SDS011;27639;48.674;9.242;2024-02-14T11:21:37;2.58;;;0.95;;
21501;SDS011;27639;48.674;9.242;2024-02-14T11:24:11;3.97;;;1.20;;
21501;SDS011;27639;48.674;9.242;2024-02-14T11:26:49;2.22;;;0.82;;
21501;SDS011;27639;48.674;9.242;2024-02-14T11:29:19;2.83;;;1.10;;
21501;SDS011;27639;48.674;9.242;2024-02-14T11:31:45;2.58;;;1.00;;
21501;SDS011;27639;48.674;9.242;2024-02-14T11:34:13;2.30;;;0.90;;
21501;SDS011;27639;48.674;9.242;2024-02-14T11:36:42;3.28;;;0.70;;
21501;SDS011;27639;48.674;9.242;2024-02-14T11:39:09;2.03;;;0.82;;
21501;SDS011;27639;48.674;9.242;2024-02-14T11:41:37;2.28;;;0.75;;
21501;SDS011;27639;48.674;9.242;2024-02-14T11:44:06;3.00;;;0.88;;
21501;SDS011;27639;48.674;9.242;2024-02-14T11:46:32;2.20;;;0.85;;
21501;SDS011;27639;48.674;9.242;2024-02-14T11:48:59;3.53;;;1.00;;
21501;SDS011;27639;48.674;9.242;2024-02-14T11:51:27;3.03;;;1.10;;
21501;SDS011;27639;48.674;9.242;2024-02-14T11:53:54;3.50;;;0.95;;
21501;SDS011;27639;48.674;9.242;2024-02-14T11:56:20;2.70;;;0.90;;
21501;SDS011;27639;48.674;9.242;2024-02-14T11:58:47;3.50;;;1.17;;
21501;SDS011;27639;48.674;9.242;2024-02-14T12:01:16;2.97;;;0.90;;
21501;SDS011;27639;48.674;9.242;2024-02-14T12:03:42;2.50;;;0.85;;
21501;SDS011;27639;48.674;9.242;2024-02-14T12:06:09;2.33;;;0.90;;
21501;SDS011;27639;48.674;9.242;2024-02-14T12:08:35;2.78;;;1.00;;
21501;SDS011;27639;48.674;9.242;2024-02-14T12:11:02;3.00;;;1.00;;
21501;SDS011;27639;48.674;9.242;2024-02-14T12:13:28;1.98;;;0.70;;
21501;SDS011;27639;48.674;9.242;2024-02-14T12:15:57;2.97;;;0.90;;
21501;SDS011;27639;48.674;9.242;2024-02-14T12:18:23;1.88;;;0.70;;
21501;SDS011;27639;48.674;9.242;2024-02-14T12:20:48;2.03;;;0.68;;
21501;SDS011;27639;48.674;9.242;2024-02-14T12:23:16;2.50;;;0.85;;
21501;SDS011;27639;48.674;9.242;2024-02-14T12:25:42;2.78;;;0.98;;
21501;SDS011;27639;48.674;9.242;2024-02-14T12:28:08;1.95;;;0.82;;
21501;SDS011;27639;48.674;9.242;2024-02-14T12:30:48;1.65;;;0.60;;
21501;SDS011;27639;48.674;9.242;2024-02-14T12:33:17;2.22;;;0.60;;
21501;SDS011;27639;48.674;9.242;2024-02-14T12:35:43;1.88;;;0.60;;
21501;SDS011;27639;48.674;9.242;2024-02-14T12:38:10;2.25;;;0.60;;
21501;SDS011;27639;48.674;9.242;2024-02-14T12:40:36;1.63;;;0.70;;
21501;SDS011;27639;48.674;9.242;2024-02-14T12:43:02;2.15;;;0.60;;
21501;SDS011;27639;48.674;9.242;2024-02-14T12:45:28;1.88;;;0.70;;
21501;SDS011;27639;48.674;9.242;2024-02-14T12:47:54;2.15;;;0.60;;
21501;SDS011;27639;48.674;9.242;2024-02-14T12:50:20;1.40;;;0.60;;
21501;SDS011;27639;48.674;9.242;2024-02-14T12:52:46;1.80;;;0.80;;
21501;SDS011;27639;48.674;9.242;2024-02-14T12:55:13;1.35;;;0.50;;
21501;SDS011;27639;48.674;9.242;2024-02-14T12:57:39;2.67;;;0.50;;
21501;SDS011;27639;48.674;9.242;2024-02-14T13:00:05;1.70;;;0.57;;
21501;SDS011;27639;48.674;9.242;2024-02-14T13:02:33;2.38;;;0.60;;
21501;SDS011;27639;48.674;9.242;2024-02-14T13:04:59;1.67;;;0.50;;
21501;SDS011;27639;48.674;9.242;2024-02-14T13:07:26;1.38;;;0.60;;
21501;SDS011;27639;48.674;9.242;2024-02-14T13:09:52;2.67;;;0.60;;
21501;SDS011;27639;48.674;9.242;2024-02-14T13:12:20;2.55;;;0.50;;
21501;SDS011;27639;48.674;9.242;2024-02-14T13:14:46;0.85;;;0.30;;
21501;SDS011;27639;48.674;9.242;2024-02-14T13:17:11;2.15;;;0.40;;
21501;SDS011;27639;48.674;9.242;2024-02-14T13:19:37;3.25;;;0.70;;
21501;SDS011;27639;48.674;9.242;2024-02-14T13:22:04;2.78;;;0.70;;
21501;SDS011;27639;48.674;9.242;2024-02-14T13:24:30;1.17;;;0.47;;
21501;SDS011;27639;48.674;9.242;2024-02-14T13:26:56;1.38;;;0.60;;
21501;SDS011;27639;48.674;9.242;2024-02-14T13:29:22;1.20;;;0.50;;
21501;SDS011;27639;48.674;9.242;2024-02-14T13:31:49;1.55;;;0.50;;
21501;SDS011;27639;48.674;9.242;2024-02-14T13:34:18;1.70;;;0.50;;
21501;SDS011;27639;48.674;9.242;2024-02-14T13:36:45;2.05;;;0.65;;
21501;SDS011;27639;48.674;9.242;2024-02-14T13:39:12;2.00;;;0.50;;
21501;SDS011;27639;48.674;9.242;2024-02-14T13:41:38;2.05;;;0.60;;
21501;SDS011;27639;48.674;9.242;2024-02-14T13:44:06;1.25;;;0.47;;
21501;SDS011;27639;48.674;9.242;2024-02-14T13:46:33;1.48;;;0.60;;
21501;SDS011;27639;48.674;9.242;2024-02-14T13:48:59;2.30;;;0.77;;
21501;SDS011;27639;48.674;9.242;2024-02-14T13:51:25;2.03;;;0.60;;
21501;SDS011;27639;48.674;9.242;2024-02-14T13:53:52;2.45;;;0.90;;
21501;SDS011;27639;48.674;9.242;2024-02-14T13:56:17;1.80;;;0.60;;
21501;SDS011;27639;48.674;9.242;2024-02-14T13:58:46;3.08;;;0.90;;
21501;SDS011;27639;48.674;9.242;2024-02-14T14:01:12;4.15;;;0.90;;
21501;SDS011;27639;48.674;9.242;2024-02-14T14:03:37;1.52;;;0.60;;
21501;SDS011;27639;48.674;9.242;2024-02-14T14:06:03;2.55;;;0.70;;
21501;SDS011;27639;48.674;9.242;2024-02-14T14:08:33;2.63;;;1.25;;
21501;SDS011;27639;48.674;9.242;2024-02-14T14:10:59;1.83;;;0.70;;
21501;SDS011;27639;48.674;9.242;2024-02-14T14:13:25;2.17;;;0.70;;
21501;SDS011;27639;48.674;9.242;2024-02-14T14:15:54;1.85;;;0.57;;
21501;SDS011;27639;48.674;9.242;2024-02-14T14:18:20;2.00;;;0.60;;
21501;SDS011;27639;48.674;9.242;2024-02-14T14:20:46;3.25;;;1.20;;
21501;SDS011;27639;48.674;9.242;2024-02-14T14:23:11;4.55;;;1.40;;
21501;SDS011;27639;48.674;9.242;2024-02-14T14:25:37;1.98;;;0.60;;
21501;SDS011;27639;48.674;9.242;2024-02-14T14:28:03;3.00;;;0.75;;
21501;SDS011;27639;48.674;9.242;2024-02-14T14:30:29;2.78;;;0.82;;
21501;SDS011;27639;48.674;9.242;2024-02-14T14:32:55;1.85;;;0.60;;
21501;SDS011;27639;48.674;9.242;2024-02-14T14:35:21;2.50;;;0.50;;
21501;SDS011;27639;48.674;9.242;2024-02-14T14:37:46;2.63;;;0.80;;
21501;SDS011;27639;48.674;9.242;2024-02-14T14:40:12;2.05;;;0.50;;
21501;SDS011;27639;48.674;9.242;2024-02-14T14:42:38;2.08;;;0.60;;